createdAt,value
2018-01-23T00:01:18.454Z,1.38
2018-01-23T00:03:45.946Z,1.44
2018-01-23T00:06:13.408Z,1.41
2018-01-23T00:08:40.867Z,1.43
2018-01-23T00:11:08.315Z,1.44
2018-01-23T00:13:35.789Z,1.46
2018-01-23T00:16:03.243Z,1.50
2018-01-23T00:18:30.701Z,1.52
2018-01-23T00:20:58.172Z,1.51
2018-01-23T00:23:25.624Z,1.50
2018-01-23T00:25:53.093Z,1.54
2018-01-23T00:28:20.544Z,1.59
2018-01-23T00:30:48.024Z,1.58
2018-01-23T00:33:15.481Z,1.53
2018-01-23T00:35:42.938Z,1.49
2018-01-23T00:38:10.385Z,1.55
2018-01-23T00:40:37.858Z,1.55
2018-01-23T00:43:05.316Z,1.57
2018-01-23T00:45:32.810Z,1.62
2018-01-23T00:48:00.264Z,1.63
2018-01-23T00:50:27.730Z,1.60
2018-01-23T00:52:55.199Z,1.57
2018-01-23T00:55:22.685Z,1.60
2018-01-23T00:57:50.142Z,1.63
2018-01-23T01:00:17.601Z,1.65
2018-01-23T01:02:45.072Z,1.65
2018-01-23T01:05:12.524Z,1.62
2018-01-23T01:07:39.988Z,1.61
2018-01-23T01:10:07.453Z,1.66
2018-01-23T01:12:34.923Z,1.65
2018-01-23T01:15:02.398Z,1.71
2018-01-23T01:17:29.896Z,1.71
2018-01-23T01:19:57.365Z,1.75
2018-01-23T01:22:25.004Z,1.76
2018-01-23T01:24:52.501Z,1.83
2018-01-23T01:27:19.959Z,1.88
2018-01-23T01:29:47.424Z,1.95
2018-01-23T01:32:14.885Z,1.99
2018-01-23T01:34:42.362Z,2.05
2018-01-23T01:37:09.830Z,2.12
2018-01-23T01:39:37.292Z,2.17
2018-01-23T01:42:04.775Z,2.22
2018-01-23T01:44:32.242Z,2.29
2018-01-23T01:46:59.702Z,2.32
2018-01-23T01:49:27.172Z,2.40
2018-01-23T01:51:54.629Z,2.41
2018-01-23T01:54:22.123Z,2.44
2018-01-23T01:56:49.596Z,2.48
2018-01-23T01:59:17.160Z,2.51
2018-01-23T02:01:44.631Z,2.57
2018-01-23T02:04:12.118Z,2.59
2018-01-23T02:06:39.610Z,2.62
2018-01-23T02:09:07.095Z,2.65
2018-01-23T02:11:34.596Z,2.67
2018-01-23T02:14:02.085Z,2.69
2018-01-23T02:16:29.610Z,2.71
2018-01-23T02:18:57.075Z,2.77
2018-01-23T02:21:24.598Z,2.80
2018-01-23T02:23:52.074Z,2.80
2018-01-23T02:26:19.607Z,2.82
2018-01-23T02:28:47.110Z,2.84
2018-01-23T02:31:14.614Z,2.82
2018-01-23T02:33:42.131Z,2.84
2018-01-23T02:36:09.605Z,2.85
2018-01-23T02:38:37.089Z,2.89
2018-01-23T02:41:04.664Z,2.91
2018-01-23T02:43:32.158Z,2.97
2018-01-23T02:45:59.650Z,2.98
2018-01-23T02:48:27.188Z,3.06
2018-01-23T02:50:54.673Z,3.05
2018-01-23T02:53:22.169Z,3.06
2018-01-23T02:55:49.632Z,3.10
2018-01-23T02:58:17.117Z,3.14
2018-01-23T03:00:44.606Z,3.13
2018-01-23T03:03:12.206Z,3.11
2018-01-23T03:05:39.672Z,3.08
2018-01-23T03:08:07.162Z,3.13
2018-01-23T03:10:34.663Z,3.08
2018-01-23T03:13:02.148Z,3.14
2018-01-23T03:15:29.622Z,3.16
2018-01-23T03:17:57.101Z,3.17
2018-01-23T03:20:24.592Z,3.21
2018-01-23T03:22:52.096Z,3.26
2018-01-23T03:25:19.580Z,3.23
2018-01-23T03:27:47.030Z,3.18
2018-01-23T03:30:14.514Z,3.21
2018-01-23T03:32:42.050Z,3.22
2018-01-23T03:35:09.815Z,3.23
2018-01-23T03:37:37.320Z,3.20
2018-01-23T03:40:04.792Z,3.19
2018-01-23T03:42:32.320Z,3.18
2018-01-23T03:44:59.793Z,3.16
2018-01-23T03:47:27.312Z,3.18
2018-01-23T03:49:54.786Z,3.17
2018-01-23T03:52:22.271Z,3.15
2018-01-23T03:54:49.756Z,3.15
2018-01-23T03:57:17.241Z,3.22
2018-01-23T03:59:44.736Z,3.22
2018-01-23T04:02:12.271Z,3.23
2018-01-23T04:04:39.743Z,3.23
2018-01-23T04:07:07.215Z,3.22
2018-01-23T04:09:34.667Z,3.22
2018-01-23T04:12:02.265Z,3.31
2018-01-23T04:14:29.738Z,3.32
2018-01-23T04:16:57.193Z,3.30
2018-01-23T04:19:24.678Z,3.34
2018-01-23T04:21:52.151Z,3.41
2018-01-23T04:24:19.675Z,3.38
2018-01-23T04:26:47.221Z,3.39
2018-01-23T04:29:14.668Z,3.45
2018-01-23T04:31:42.148Z,3.42
2018-01-23T04:34:09.616Z,3.43
2018-01-23T04:36:37.065Z,3.42
2018-01-23T04:39:04.559Z,3.43
2018-01-23T04:41:32.020Z,3.42
2018-01-23T04:43:59.508Z,3.41
2018-01-23T04:46:26.983Z,3.42
2018-01-23T04:48:54.477Z,3.46
2018-01-23T04:51:21.961Z,3.45
2018-01-23T04:53:49.457Z,3.49
2018-01-23T04:56:16.914Z,3.52
2018-01-23T04:58:44.393Z,3.45
2018-01-23T05:01:11.874Z,3.37
2018-01-23T05:03:39.360Z,3.38
2018-01-23T05:06:06.820Z,3.33
2018-01-23T05:08:34.264Z,3.29
2018-01-23T05:11:01.735Z,3.27
2018-01-23T05:13:29.188Z,3.29
2018-01-23T05:15:56.642Z,3.28
2018-01-23T05:18:24.093Z,3.24
2018-01-23T05:20:51.554Z,3.27
2018-01-23T05:23:19.008Z,3.27
2018-01-23T05:25:46.478Z,3.24
2018-01-23T05:28:13.966Z,3.22
2018-01-23T05:30:41.475Z,3.19
2018-01-23T05:33:08.931Z,3.21
2018-01-23T05:35:36.392Z,3.21
2018-01-23T05:38:03.869Z,3.22
2018-01-23T05:40:31.314Z,3.22
2018-01-23T05:42:58.785Z,4.51
2018-01-23T05:45:26.244Z,4.65
2018-01-23T05:47:53.737Z,5.15
2018-01-23T05:50:21.182Z,5.11
2018-01-23T05:52:48.658Z,5.32
2018-01-23T05:55:16.185Z,4.45
2018-01-23T05:57:43.637Z,4.18
2018-01-23T06:00:11.169Z,3.89
2018-01-23T06:02:38.617Z,3.73
2018-01-23T06:05:06.087Z,3.63
2018-01-23T06:07:33.537Z,3.58
2018-01-23T06:10:01.004Z,3.54
2018-01-23T06:12:28.456Z,3.51
2018-01-23T06:14:55.916Z,3.46
2018-01-23T06:17:23.411Z,3.49
2018-01-23T06:19:50.899Z,3.49
2018-01-23T06:22:18.359Z,3.49
2018-01-23T06:24:45.812Z,3.45
2018-01-23T06:27:13.283Z,3.44
2018-01-23T06:29:40.754Z,3.44
2018-01-23T06:32:08.217Z,3.42
2018-01-23T06:34:35.666Z,3.44
2018-01-23T06:37:03.132Z,3.49
2018-01-23T06:39:30.593Z,3.46
2018-01-23T06:41:58.057Z,3.44
2018-01-23T06:44:25.522Z,3.45
2018-01-23T06:46:53.690Z,3.46
2018-01-23T06:49:21.142Z,3.51
2018-01-23T06:51:48.596Z,3.55
2018-01-23T06:54:16.090Z,3.60
2018-01-23T06:56:43.565Z,3.60
2018-01-23T06:59:11.030Z,3.61
2018-01-23T07:01:38.483Z,3.65
2018-01-23T07:04:05.957Z,3.63
2018-01-23T07:06:33.413Z,3.66
2018-01-23T07:09:00.881Z,3.71
2018-01-23T07:11:28.335Z,3.72
2018-01-23T07:13:55.797Z,3.76
2018-01-23T07:16:23.254Z,3.86
2018-01-23T07:18:50.745Z,3.85
2018-01-23T07:21:18.204Z,3.87
2018-01-23T07:23:45.686Z,3.93
2018-01-23T07:26:13.155Z,3.90
2018-01-23T07:28:40.614Z,3.94
2018-01-23T07:31:08.097Z,3.91
2018-01-23T07:33:35.571Z,4.01
2018-01-23T07:36:03.067Z,3.99
2018-01-23T07:38:30.525Z,3.97
2018-01-23T07:40:57.999Z,4.01
2018-01-23T07:43:25.465Z,4.04
2018-01-23T07:45:52.944Z,4.08
2018-01-23T07:48:20.396Z,4.07
2018-01-23T07:50:47.877Z,4.11
2018-01-23T07:53:15.361Z,4.09
2018-01-23T07:55:42.818Z,4.08
2018-01-23T07:58:10.303Z,4.16
2018-01-23T08:00:37.809Z,4.18
2018-01-23T08:03:05.283Z,4.19
2018-01-23T08:05:32.733Z,4.16
2018-01-23T08:08:00.216Z,4.25
2018-01-23T08:10:27.685Z,4.29
2018-01-23T08:12:55.170Z,4.36
2018-01-23T08:15:22.624Z,4.35
2018-01-23T08:17:50.086Z,4.38
2018-01-23T08:20:17.555Z,4.39
2018-01-23T08:22:45.014Z,4.33
2018-01-23T08:25:12.492Z,4.33
2018-01-23T08:30:13.627Z,4.35
2018-01-23T08:32:41.087Z,4.37
2018-01-23T08:35:08.555Z,4.40
2018-01-23T08:37:36.028Z,4.43
2018-01-23T08:40:03.488Z,4.40
2018-01-23T08:42:30.957Z,4.44
2018-01-23T08:44:58.432Z,4.44
2018-01-23T08:47:25.901Z,4.46
2018-01-23T08:49:53.381Z,4.55
2018-01-23T08:52:20.828Z,4.54
2018-01-23T08:54:48.348Z,4.60
2018-01-23T08:57:15.804Z,4.69
2018-01-23T08:59:43.273Z,4.63
2018-01-23T09:02:10.745Z,4.72
2018-01-23T09:04:38.205Z,4.73
2018-01-23T09:07:05.678Z,4.80
2018-01-23T09:09:33.162Z,4.84
2018-01-23T09:12:00.642Z,4.90
2018-01-23T09:14:28.105Z,4.97
2018-01-23T09:16:55.580Z,4.97
2018-01-23T09:19:23.049Z,4.99
2018-01-23T09:21:50.515Z,4.97
2018-01-23T09:24:17.980Z,4.99
2018-01-23T09:26:45.445Z,5.13
2018-01-23T09:29:12.924Z,5.25
2018-01-23T09:31:40.372Z,5.33
2018-01-23T09:34:07.841Z,5.24
2018-01-23T09:36:35.288Z,5.24
2018-01-23T09:39:02.759Z,5.22
2018-01-23T09:41:30.224Z,5.22
2018-01-23T09:43:57.685Z,5.23
2018-01-23T09:46:25.174Z,5.24
2018-01-23T09:48:52.667Z,5.17
2018-01-23T09:51:20.134Z,5.09
2018-01-23T09:53:47.626Z,5.12
2018-01-23T09:56:15.092Z,5.14
2018-01-23T09:58:42.557Z,5.18
2018-01-23T10:01:10.032Z,5.26
2018-01-23T10:03:37.476Z,5.13
2018-01-23T10:06:04.950Z,5.12
2018-01-23T10:08:32.404Z,5.07
2018-01-23T10:10:59.892Z,5.07
2018-01-23T10:13:27.361Z,5.11
2018-01-23T10:15:54.847Z,5.15
2018-01-23T10:18:22.304Z,5.30
2018-01-23T10:20:49.804Z,5.27
2018-01-23T10:23:17.305Z,5.19
2018-01-23T10:25:44.768Z,5.18
2018-01-23T10:28:12.239Z,5.23
2018-01-23T10:30:39.705Z,5.31
2018-01-23T10:33:07.167Z,5.37
2018-01-23T10:35:34.635Z,5.34
2018-01-23T10:38:02.108Z,5.30
2018-01-23T10:40:29.601Z,5.32
2018-01-23T10:42:57.091Z,5.35
2018-01-23T10:45:24.564Z,5.31
2018-01-23T10:47:52.028Z,5.33
2018-01-23T10:50:19.496Z,5.39
2018-01-23T10:52:46.971Z,5.43
2018-01-23T10:55:14.461Z,5.55
2018-01-23T10:57:41.937Z,5.58
2018-01-23T11:00:09.423Z,5.56
2018-01-23T11:02:36.923Z,5.54
2018-01-23T11:05:04.399Z,5.58
2018-01-23T11:07:31.870Z,5.66
2018-01-23T11:09:59.348Z,5.69
2018-01-23T11:12:26.812Z,5.79
2018-01-23T11:14:54.278Z,5.75
2018-01-23T11:17:21.754Z,5.85
2018-01-23T11:19:49.250Z,5.74
2018-01-23T11:22:16.716Z,5.68
2018-01-23T11:24:44.182Z,5.68
2018-01-23T11:27:11.720Z,5.75
2018-01-23T11:29:39.179Z,5.77
2018-01-23T11:32:06.669Z,5.84
2018-01-23T11:34:34.145Z,5.87
2018-01-23T11:37:01.614Z,5.91
2018-01-23T11:39:29.080Z,5.94
2018-01-23T11:41:56.575Z,5.94
2018-01-23T11:44:24.042Z,5.83
2018-01-23T11:46:51.642Z,5.93
2018-01-23T11:49:19.109Z,5.88
2018-01-23T11:51:46.577Z,5.79
2018-01-23T11:54:14.056Z,5.85
2018-01-23T11:56:41.531Z,5.87
2018-01-23T11:59:09.022Z,5.88
2018-01-23T12:01:36.494Z,5.79
2018-01-23T12:04:03.971Z,5.88
2018-01-23T12:06:31.433Z,5.80
2018-01-23T12:08:58.936Z,5.76
2018-01-23T12:11:26.410Z,5.78
2018-01-23T12:13:53.894Z,5.72
2018-01-23T12:16:21.355Z,5.73
2018-01-23T12:18:48.825Z,5.69
2018-01-23T12:21:16.298Z,5.69
2018-01-23T12:23:43.767Z,5.71
2018-01-23T12:26:11.259Z,5.71
2018-01-23T12:28:38.718Z,5.83
2018-01-23T12:31:06.190Z,5.80
2018-01-23T12:33:33.664Z,5.78
2018-01-23T12:36:01.145Z,5.87
2018-01-23T12:38:28.623Z,5.83
2018-01-23T12:40:56.103Z,5.88
2018-01-23T12:43:23.603Z,5.92
2018-01-23T12:45:51.066Z,6.09
2018-01-23T12:48:18.538Z,6.43
2018-01-23T12:50:45.994Z,6.75
2018-01-23T12:53:13.477Z,7.26
2018-01-23T12:55:40.944Z,7.48
2018-01-23T12:58:08.397Z,7.31
2018-01-23T13:00:35.860Z,7.34
2018-01-23T13:03:03.326Z,7.24
2018-01-23T13:05:30.785Z,7.02
2018-01-23T13:07:58.240Z,6.90
2018-01-23T13:10:25.716Z,7.48
2018-01-23T13:12:53.176Z,7.65
2018-01-23T13:15:20.645Z,7.58
2018-01-23T13:17:48.105Z,7.79
2018-01-23T13:20:15.586Z,7.63
2018-01-23T13:22:43.049Z,7.55
2018-01-23T13:25:10.533Z,7.34
2018-01-23T13:27:37.990Z,7.31
2018-01-23T13:30:05.449Z,7.16
2018-01-23T13:32:32.915Z,7.25
2018-01-23T13:35:00.377Z,7.15
2018-01-23T13:37:27.903Z,7.20
2018-01-23T13:39:55.396Z,7.29
2018-01-23T13:42:22.848Z,7.21
2018-01-23T13:44:50.314Z,7.18
2018-01-23T13:47:17.779Z,7.03
2018-01-23T13:49:45.253Z,6.96
2018-01-23T13:52:12.729Z,6.93
2018-01-23T13:54:40.202Z,6.87
2018-01-23T13:57:07.698Z,6.84
2018-01-23T13:59:35.159Z,6.87
2018-01-23T14:02:02.673Z,6.70
2018-01-23T14:04:30.174Z,6.61
2018-01-23T14:06:57.644Z,6.56
2018-01-23T14:09:25.144Z,6.54
2018-01-23T14:11:52.652Z,6.61
2018-01-23T14:14:20.108Z,6.57
2018-01-23T14:16:47.588Z,6.59
2018-01-23T14:19:15.065Z,6.59
2018-01-23T14:21:42.553Z,6.67
2018-01-23T14:24:10.018Z,6.63
2018-01-23T14:26:37.483Z,6.54
2018-01-23T14:29:04.952Z,6.51
2018-01-23T14:31:32.444Z,6.52
2018-01-23T14:33:59.929Z,6.52
2018-01-23T14:36:27.428Z,6.50
2018-01-23T14:38:54.890Z,6.48
2018-01-23T14:41:22.384Z,6.49
2018-01-23T14:43:49.858Z,6.51
2018-01-23T14:46:17.349Z,6.58
2018-01-23T14:48:44.819Z,6.56
2018-01-23T14:51:12.316Z,6.51
2018-01-23T14:53:39.796Z,6.52
2018-01-23T14:56:07.371Z,6.54
2018-01-23T14:58:34.861Z,6.54
2018-01-23T15:01:02.324Z,6.53
2018-01-23T15:03:29.768Z,6.58
2018-01-23T15:05:57.284Z,6.56
2018-01-23T15:08:24.755Z,6.47
2018-01-23T15:10:52.246Z,6.48
2018-01-23T15:13:19.717Z,6.45
2018-01-23T15:15:47.198Z,6.43
2018-01-23T15:18:14.654Z,6.40
2018-01-23T15:20:42.144Z,6.40
2018-01-23T15:23:09.595Z,6.33
2018-01-23T15:25:37.052Z,6.31
2018-01-23T15:28:04.521Z,6.25
2018-01-23T15:30:31.994Z,6.21
2018-01-23T15:32:59.481Z,6.16
2018-01-23T15:35:27.043Z,6.25
2018-01-23T15:37:54.730Z,6.21
2018-01-23T15:40:22.303Z,6.12
2018-01-23T15:42:49.814Z,6.15
2018-01-23T15:45:17.312Z,6.17
2018-01-23T15:47:44.808Z,6.05
2018-01-23T15:50:12.275Z,6.09
2018-01-23T15:52:39.755Z,6.08
2018-01-23T15:55:07.274Z,6.07
2018-01-23T15:57:34.775Z,6.08
2018-01-23T16:00:02.239Z,6.10
2018-01-23T16:02:29.713Z,6.12
2018-01-23T16:04:57.190Z,6.09
2018-01-23T16:07:24.666Z,6.13
2018-01-23T16:09:52.141Z,6.13
2018-01-23T16:12:19.628Z,6.12
2018-01-23T16:14:47.089Z,6.14
2018-01-23T16:17:14.656Z,6.10
2018-01-23T16:19:42.164Z,6.13
2018-01-23T16:22:09.630Z,6.11
2018-01-23T16:24:37.170Z,6.00
2018-01-23T16:27:04.728Z,5.96
2018-01-23T16:29:32.205Z,6.04
2018-01-23T16:31:59.676Z,6.07
2018-01-23T16:34:27.163Z,6.06
2018-01-23T16:36:54.641Z,6.08
2018-01-23T16:39:22.168Z,6.03
2018-01-23T16:41:49.620Z,6.12
2018-01-23T16:44:17.192Z,6.15
2018-01-23T16:46:44.690Z,6.13
2018-01-23T16:49:12.188Z,6.17
2018-01-23T16:51:39.705Z,6.17
2018-01-23T16:54:07.167Z,6.10
2018-01-23T16:56:34.672Z,6.09
2018-01-23T16:59:02.156Z,6.14
2018-01-23T17:01:29.723Z,6.14
2018-01-23T17:03:57.193Z,6.10
2018-01-23T17:06:24.785Z,6.08
2018-01-23T17:08:52.298Z,6.06
2018-01-23T17:11:19.773Z,6.06
2018-01-23T17:13:47.239Z,6.10
2018-01-23T17:16:14.705Z,6.11
2018-01-23T17:18:42.183Z,6.15
2018-01-23T17:21:09.666Z,6.12
2018-01-23T17:23:37.179Z,6.11
2018-01-23T17:26:04.684Z,6.03
2018-01-23T17:28:32.177Z,6.00
2018-01-23T17:30:59.727Z,6.03
2018-01-23T17:33:27.236Z,6.06
2018-01-23T17:35:54.710Z,6.05
2018-01-23T17:38:22.322Z,6.01
2018-01-23T17:40:49.846Z,5.95
2018-01-23T17:43:17.313Z,5.91
2018-01-23T17:45:44.832Z,5.88
2018-01-23T17:48:12.358Z,5.85
2018-01-23T17:50:39.876Z,5.83
2018-01-23T17:53:07.392Z,5.78
2018-01-23T17:55:34.888Z,5.74
2018-01-23T17:58:02.357Z,5.71
2018-01-23T18:00:38.216Z,5.71
2018-01-23T18:03:05.766Z,5.67
2018-01-23T18:05:33.321Z,5.68
2018-01-23T18:08:00.790Z,5.62
2018-01-23T18:10:28.282Z,5.69
2018-01-23T18:12:55.795Z,5.66
2018-01-23T18:15:23.272Z,5.65
2018-01-23T18:17:50.748Z,5.63
2018-01-23T18:20:18.259Z,5.63
2018-01-23T18:22:45.744Z,5.58
2018-01-23T18:25:13.247Z,5.53
2018-01-23T18:27:40.832Z,5.42
2018-01-23T18:30:08.363Z,5.28
2018-01-23T18:32:35.913Z,5.16
2018-01-23T18:35:03.450Z,5.17
2018-01-23T18:37:30.954Z,5.46
2018-01-23T18:39:58.434Z,5.40
2018-01-23T18:42:25.955Z,5.32
2018-01-23T18:44:53.482Z,5.17
2018-01-23T18:47:20.989Z,4.96
2018-01-23T18:49:48.513Z,4.84
2018-01-23T18:52:15.980Z,4.71
2018-01-23T18:54:43.478Z,4.55
2018-01-23T18:57:10.940Z,4.51
2018-01-23T18:59:38.449Z,4.43
2018-01-23T19:02:05.920Z,4.37
2018-01-23T19:04:33.438Z,4.35
2018-01-23T19:07:00.952Z,4.35
2018-01-23T19:09:28.434Z,4.41
2018-01-23T19:11:55.900Z,4.64
2018-01-23T19:14:23.425Z,4.80
2018-01-23T19:16:50.910Z,4.87
2018-01-23T19:19:18.446Z,4.90
2018-01-23T19:21:46.015Z,4.92
2018-01-23T19:24:13.544Z,5.00
2018-01-23T19:26:41.019Z,5.01
2018-01-23T19:29:08.826Z,5.06
2018-01-23T19:31:36.341Z,5.13
2018-01-23T19:34:03.873Z,5.14
2018-01-23T19:36:31.356Z,5.14
2018-01-23T19:38:58.898Z,5.20
2018-01-23T19:41:26.424Z,5.22
2018-01-23T19:43:53.933Z,5.28
2018-01-23T19:46:21.453Z,5.28
2018-01-23T19:48:48.963Z,5.29
2018-01-23T19:51:16.430Z,5.33
2018-01-23T19:53:43.951Z,5.34
2018-01-23T19:56:11.488Z,5.37
2018-01-23T19:58:38.980Z,5.44
2018-01-23T20:01:06.504Z,5.46
2018-01-23T20:03:34.029Z,5.48
2018-01-23T20:06:01.950Z,5.49
2018-01-23T20:08:30.321Z,5.55
2018-01-23T20:10:57.876Z,5.59
2018-01-23T20:13:25.354Z,5.59
2018-01-23T20:15:52.858Z,5.65
2018-01-23T20:18:20.383Z,5.69
2018-01-23T20:20:47.832Z,5.77
2018-01-23T20:23:15.304Z,5.77
2018-01-23T20:25:42.763Z,5.80
2018-01-23T20:28:10.323Z,5.80
2018-01-23T20:30:37.870Z,5.86
2018-01-23T20:33:05.473Z,5.84
2018-01-23T20:35:32.975Z,5.86
2018-01-23T20:38:00.464Z,5.85
2018-01-23T20:40:27.970Z,5.82
2018-01-23T20:42:55.453Z,5.87
2018-01-23T20:45:22.978Z,5.91
2018-01-23T20:47:50.436Z,5.95
2018-01-23T20:50:18.162Z,5.87
2018-01-23T20:52:45.633Z,5.93
2018-01-23T20:55:13.111Z,5.97
2018-01-23T20:57:40.632Z,5.97
2018-01-23T21:00:08.249Z,6.00
2018-01-23T21:02:35.774Z,5.99
2018-01-23T21:05:03.239Z,5.97
2018-01-23T21:07:30.714Z,6.00
2018-01-23T21:09:58.192Z,6.04
2018-01-23T21:12:25.725Z,6.05
2018-01-23T21:14:53.286Z,6.14
2018-01-23T21:17:20.734Z,6.14
2018-01-23T21:19:48.185Z,6.20
2018-01-23T21:22:15.736Z,6.21
2018-01-23T21:24:43.259Z,6.21
2018-01-23T21:27:10.819Z,6.22
2018-01-23T21:29:38.330Z,6.22
2018-01-23T21:32:05.790Z,6.24
2018-01-23T21:34:33.258Z,6.20
2018-01-23T21:37:00.769Z,6.17
2018-01-23T21:39:28.277Z,6.22
2018-01-23T21:41:55.796Z,6.21
2018-01-23T21:44:23.293Z,6.28
2018-01-23T21:46:50.804Z,6.28
2018-01-23T21:49:18.337Z,6.25
2018-01-23T21:51:45.799Z,6.31
2018-01-23T21:54:13.339Z,6.34
2018-01-23T21:56:40.945Z,6.38
2018-01-23T21:59:08.416Z,6.32
2018-01-23T22:01:35.967Z,6.28
2018-01-23T22:04:03.491Z,6.31
2018-01-23T22:06:31.036Z,6.31
2018-01-23T22:08:58.536Z,6.28
2018-01-23T22:11:25.990Z,6.30
2018-01-23T22:13:53.448Z,6.30
2018-01-23T22:16:20.899Z,6.29
2018-01-23T22:18:48.415Z,6.27
2018-01-23T22:21:15.888Z,6.24
2018-01-23T22:23:43.347Z,6.16
2018-01-23T22:26:10.897Z,5.99
2018-01-23T22:28:38.453Z,5.89
2018-01-23T22:31:05.954Z,5.78
2018-01-23T22:33:33.459Z,5.74
2018-01-23T22:36:00.896Z,5.66
2018-01-23T22:38:28.370Z,5.66
2018-01-23T22:40:55.834Z,5.70
2018-01-23T22:43:23.299Z,5.64
2018-01-23T22:45:50.764Z,5.68
2018-01-23T22:48:18.237Z,5.60
2018-01-23T22:50:45.704Z,5.54
2018-01-23T22:53:13.160Z,5.51
2018-01-23T22:55:40.645Z,5.54
2018-01-23T22:58:08.120Z,5.46
2018-01-23T23:00:35.592Z,5.40
2018-01-23T23:03:03.060Z,5.38
2018-01-23T23:05:30.521Z,5.36
2018-01-23T23:07:57.993Z,5.37
2018-01-23T23:10:25.445Z,5.35
2018-01-23T23:12:52.916Z,5.32
2018-01-23T23:15:20.408Z,5.37
2018-01-23T23:17:47.885Z,5.35
2018-01-23T23:20:15.376Z,5.33
2018-01-23T23:22:42.889Z,5.35
2018-01-23T23:25:10.349Z,5.33
2018-01-23T23:27:37.832Z,5.32
2018-01-23T23:30:05.297Z,5.32
2018-01-23T23:32:32.776Z,5.31
2018-01-23T23:35:00.234Z,5.33
2018-01-23T23:37:27.709Z,5.33
2018-01-23T23:39:55.165Z,5.34
2018-01-23T23:42:22.629Z,5.35
2018-01-23T23:44:50.098Z,5.39
2018-01-23T23:47:17.561Z,5.38
2018-01-23T23:49:45.035Z,5.34
2018-01-23T23:52:12.494Z,5.34
2018-01-23T23:54:39.969Z,5.34
2018-01-23T23:57:07.424Z,5.37
2018-01-23T23:59:34.892Z,5.39
